createdAt,value
2022-09-28T00:01:17.462Z,87.85
2022-09-28T00:03:46.230Z,87.67
2022-09-28T00:06:16.156Z,88.32
2022-09-28T00:08:44.352Z,88.06
2022-09-28T00:11:14.891Z,87.76
2022-09-28T00:13:43.974Z,88.20
2022-09-28T00:16:14.232Z,88.45
2022-09-28T00:18:44.842Z,88.97
2022-09-28T00:21:15.954Z,88.89
2022-09-28T00:23:59.274Z,88.59
2022-09-28T00:26:28.583Z,88.47
2022-09-28T00:28:59.710Z,89.21
2022-09-28T00:31:31.867Z,89.10
2022-09-28T00:34:01.840Z,88.93
2022-09-28T00:36:32.218Z,88.73
2022-09-28T00:39:05.971Z,88.57
2022-09-28T00:41:35.363Z,88.35
2022-09-28T00:44:34.648Z,88.38
2022-09-28T00:47:09.288Z,88.36
2022-09-28T00:49:43.664Z,88.64
2022-09-28T00:52:15.996Z,88.76
2022-09-28T00:54:47.327Z,88.29
2022-09-28T00:57:16.732Z,88.15
2022-09-28T00:59:45.237Z,88.39
2022-09-28T01:02:13.669Z,88.33
2022-09-28T01:04:42.071Z,89.00
2022-09-28T01:07:11.882Z,88.96
2022-09-28T01:09:40.537Z,88.92
2022-09-28T01:12:09.224Z,88.73
2022-09-28T01:14:38.052Z,88.68
2022-09-28T01:17:13.222Z,88.77
2022-09-28T01:20:27.858Z,89.31
2022-09-28T01:23:39.855Z,89.42
2022-09-28T01:26:34.529Z,88.75
2022-09-28T01:29:10.815Z,88.67
2022-09-28T01:31:43.916Z,89.05
2022-09-28T01:34:16.041Z,89.84
2022-09-28T01:36:50.213Z,89.83
2022-09-28T01:39:24.032Z,90.22
2022-09-28T01:41:54.190Z,89.99
2022-09-28T01:44:24.693Z,89.86
2022-09-28T01:47:02.808Z,89.37
2022-09-28T01:49:36.072Z,88.99
2022-09-28T01:52:10.905Z,88.85
2022-09-28T01:54:44.407Z,88.74
2022-09-28T01:57:15.766Z,88.90
2022-09-28T01:59:51.924Z,88.70
2022-09-28T02:02:25.008Z,88.56
2022-09-28T02:04:56.938Z,89.27
2022-09-28T02:07:31.923Z,89.37
2022-09-28T02:10:05.361Z,89.41
2022-09-28T02:12:36.989Z,90.81
2022-09-28T02:15:13.929Z,89.69
2022-09-28T02:17:42.531Z,90.00
2022-09-28T02:20:14.774Z,89.79
2022-09-28T02:22:48.884Z,89.79
2022-09-28T02:25:23.750Z,90.36
2022-09-28T02:27:56.713Z,90.11
2022-09-28T02:30:25.049Z,90.22
2022-09-28T02:32:56.816Z,90.21
2022-09-28T02:35:25.276Z,90.13
2022-09-28T02:37:54.811Z,90.02
2022-09-28T02:40:28.728Z,90.65
2022-09-28T02:43:04.063Z,90.81
2022-09-28T02:45:46.239Z,89.80
2022-09-28T02:48:43.161Z,89.23
2022-09-28T02:51:21.213Z,90.27
2022-09-28T02:54:18.544Z,89.82
2022-09-28T02:57:07.614Z,89.17
2022-09-28T02:59:47.066Z,90.10
2022-09-28T03:02:23.425Z,90.24
2022-09-28T03:05:03.751Z,90.52
2022-09-28T03:07:36.646Z,90.09
2022-09-28T03:10:13.486Z,89.21
2022-09-28T03:12:44.890Z,90.08
2022-09-28T03:15:19.610Z,89.59
2022-09-28T03:17:48.102Z,89.37
2022-09-28T03:20:17.229Z,90.89
2022-09-28T03:23:00.292Z,90.97
2022-09-28T03:25:34.037Z,90.91
2022-09-28T03:28:02.523Z,91.27
2022-09-28T03:30:31.552Z,90.58
2022-09-28T03:33:01.754Z,91.10
2022-09-28T03:35:31.513Z,92.16
2022-09-28T03:37:59.682Z,92.92
2022-09-28T03:40:28.907Z,92.06
2022-09-28T03:42:57.147Z,91.51
2022-09-28T03:45:25.469Z,90.33
2022-09-28T03:47:53.960Z,90.28
2022-09-28T03:50:22.144Z,90.94
2022-09-28T03:52:50.561Z,91.96
2022-09-28T03:55:18.825Z,91.36
2022-09-28T03:57:54.926Z,90.76
2022-09-28T04:00:23.552Z,89.84
2022-09-28T04:02:51.762Z,89.54
2022-09-28T04:05:20.097Z,89.31
2022-09-28T04:07:49.351Z,89.78
2022-09-28T04:10:17.655Z,91.20
2022-09-28T04:12:46.040Z,90.30
2022-09-28T04:15:16.361Z,89.76
2022-09-28T04:17:44.699Z,89.57
2022-09-28T04:20:26.361Z,89.97
2022-09-28T04:23:02.126Z,90.23
2022-09-28T04:25:30.952Z,90.00
2022-09-28T04:28:17.935Z,89.92
2022-09-28T04:30:47.606Z,90.22
2022-09-28T04:33:16.154Z,90.23
2022-09-28T04:35:44.606Z,90.13
2022-09-28T04:38:12.862Z,90.21
2022-09-28T04:40:41.634Z,90.17
2022-09-28T04:43:10.038Z,90.57
2022-09-28T04:45:38.275Z,90.58
2022-09-28T04:48:10.444Z,89.63
2022-09-28T04:51:03.035Z,89.36
2022-09-28T04:53:31.937Z,88.88
2022-09-28T04:56:01.793Z,88.97
2022-09-28T04:58:31.597Z,89.03
2022-09-28T05:01:01.905Z,89.95
2022-09-28T05:03:50.514Z,90.46
2022-09-28T05:06:30.046Z,90.35
2022-09-28T05:09:06.144Z,90.05
2022-09-28T05:11:34.814Z,90.15
2022-09-28T05:14:03.319Z,90.08
2022-09-28T05:16:33.160Z,90.46
2022-09-28T05:19:20.241Z,89.19
2022-09-28T05:21:49.005Z,88.47
2022-09-28T05:24:17.250Z,88.82
2022-09-28T05:26:51.165Z,88.99
2022-09-28T05:29:19.421Z,89.02
2022-09-28T05:32:21.145Z,88.65
2022-09-28T05:39:40.325Z,88.58
2022-09-28T05:42:08.661Z,88.54
2022-09-28T05:44:37.837Z,88.79
2022-09-28T05:47:06.377Z,88.84
2022-09-28T05:49:34.673Z,88.57
2022-09-28T05:52:03.408Z,88.21
2022-09-28T05:54:32.693Z,88.03
2022-09-28T05:57:04.441Z,88.29
2022-09-28T05:59:34.470Z,88.16
2022-09-28T06:02:03.162Z,87.84
2022-09-28T06:04:32.107Z,88.03
2022-09-28T06:07:00.360Z,87.56
2022-09-28T06:09:29.855Z,87.61
2022-09-28T06:12:19.219Z,87.46
2022-09-28T06:14:50.162Z,87.05
2022-09-28T06:17:18.404Z,88.80
2022-09-28T06:19:52.604Z,87.99
2022-09-28T06:22:26.996Z,88.44
2022-09-28T06:25:08.292Z,87.81
2022-09-28T06:27:37.040Z,87.69
2022-09-28T06:30:06.905Z,87.48
2022-09-28T06:32:35.619Z,86.93
2022-09-28T06:35:05.006Z,86.62
2022-09-28T06:37:33.333Z,87.04
2022-09-28T06:40:04.471Z,86.71
2022-09-28T06:42:32.990Z,87.32
2022-09-28T06:45:31.415Z,87.19
2022-09-28T06:48:25.938Z,87.39
2022-09-28T06:50:54.389Z,86.87
2022-09-28T06:53:28.859Z,87.26
2022-09-28T06:56:11.650Z,86.90
2022-09-28T06:58:39.880Z,86.06
2022-09-28T07:01:11.296Z,85.87
2022-09-28T07:04:15.102Z,86.47
2022-09-28T07:07:02.185Z,85.85
2022-09-28T07:10:10.422Z,85.73
2022-09-28T07:13:05.041Z,86.36
2022-09-28T07:15:43.356Z,85.46
2022-09-28T07:18:14.624Z,85.01
2022-09-28T07:20:53.750Z,85.48
2022-09-28T07:23:23.330Z,85.69
2022-09-28T07:26:10.591Z,86.06
2022-09-28T07:28:45.620Z,85.61
2022-09-28T07:31:34.435Z,85.23
2022-09-28T07:34:14.228Z,85.22
2022-09-28T07:37:11.011Z,85.56
2022-09-28T07:39:54.101Z,85.04
2022-09-28T07:42:22.737Z,84.46
2022-09-28T07:44:51.024Z,83.83
2022-09-28T07:47:28.599Z,83.69
2022-09-28T07:50:34.643Z,83.40
2022-09-28T07:53:22.220Z,83.26
2022-09-28T07:56:01.295Z,82.67
2022-09-28T07:58:42.716Z,81.41
2022-09-28T08:01:30.260Z,81.45
2022-09-28T08:03:59.750Z,80.65
2022-09-28T08:06:31.027Z,80.40
2022-09-28T08:09:01.090Z,80.34
2022-09-28T08:11:49.434Z,79.94
2022-09-28T08:14:36.965Z,79.89
2022-09-28T08:17:23.985Z,80.29
2022-09-28T08:20:14.736Z,80.06
2022-09-28T08:22:43.660Z,79.89
2022-09-28T08:25:12.649Z,80.16
2022-09-28T08:27:40.849Z,80.56
2022-09-28T08:30:11.328Z,80.47
2022-09-28T08:33:07.337Z,79.33
2022-09-28T08:35:46.032Z,80.23
2022-09-28T08:38:20.785Z,78.47
2022-09-28T08:41:24.732Z,78.48
2022-09-28T08:44:15.615Z,78.11
2022-09-28T08:47:07.504Z,77.64
2022-09-28T08:49:49.531Z,77.02
2022-09-28T08:52:39.394Z,76.82
2022-09-28T08:55:30.765Z,77.26
2022-09-28T08:58:04.909Z,76.78
2022-09-28T09:00:42.188Z,76.04
2022-09-28T09:03:13.558Z,75.51
2022-09-28T09:05:55.244Z,75.86
2022-09-28T09:08:59.392Z,75.52
2022-09-28T09:11:48.146Z,75.22
2022-09-28T09:14:38.225Z,73.08
2022-09-28T09:17:17.707Z,72.57
2022-09-28T09:20:04.233Z,73.56
2022-09-28T09:22:59.223Z,73.97
2022-09-28T09:25:38.403Z,73.47
2022-09-28T09:28:34.612Z,72.95
2022-09-28T09:31:16.912Z,73.32
2022-09-28T09:34:04.424Z,73.65
2022-09-28T09:37:17.001Z,72.04
2022-09-28T09:40:24.235Z,71.67
2022-09-28T09:43:59.230Z,71.21
2022-09-28T09:46:49.540Z,70.46
2022-09-28T09:49:40.963Z,69.97
2022-09-28T09:52:18.917Z,69.55
2022-09-28T09:54:52.450Z,68.26
2022-09-28T09:57:52.358Z,67.46
2022-09-28T10:00:34.604Z,68.01
2022-09-28T10:03:21.451Z,68.42
2022-09-28T10:05:55.070Z,68.67
2022-09-28T10:08:25.794Z,68.84
2022-09-28T10:11:07.000Z,67.93
2022-09-28T10:13:36.308Z,66.93
2022-09-28T10:16:08.268Z,65.95
2022-09-28T10:18:45.396Z,64.39
2022-09-28T10:21:36.886Z,63.40
2022-09-28T10:24:30.887Z,62.25
2022-09-28T10:27:04.834Z,62.23
2022-09-28T10:29:43.832Z,60.57
2022-09-28T10:32:24.516Z,61.77
2022-09-28T10:35:14.447Z,61.55
2022-09-28T10:37:54.555Z,62.35
2022-09-28T10:40:45.013Z,62.12
2022-09-28T10:43:22.452Z,62.66
2022-09-28T10:46:01.291Z,62.57
2022-09-28T10:48:38.966Z,62.78
2022-09-28T10:51:08.418Z,62.82
2022-09-28T10:53:37.093Z,62.67
2022-09-28T10:56:36.786Z,61.74
2022-09-28T10:59:24.100Z,61.84
2022-09-28T11:01:56.194Z,61.21
2022-09-28T11:04:28.154Z,61.31
2022-09-28T11:09:41.164Z,59.59
2022-09-28T11:12:15.908Z,60.89
2022-09-28T11:14:45.599Z,61.04
2022-09-28T11:17:26.889Z,61.17
2022-09-28T11:19:56.592Z,60.95
2022-09-28T11:22:29.211Z,60.67
2022-09-28T11:25:22.884Z,61.31
2022-09-28T11:28:00.996Z,62.06
2022-09-28T11:30:33.871Z,62.49
2022-09-28T11:33:26.981Z,62.57
2022-09-28T11:36:43.896Z,61.65
2022-09-28T11:39:23.485Z,61.26
2022-09-28T11:42:15.504Z,61.95
2022-09-28T11:44:47.558Z,62.32
2022-09-28T11:47:36.349Z,62.44
2022-09-28T11:50:14.063Z,62.82
2022-09-28T11:52:49.061Z,62.95
2022-09-28T11:55:24.577Z,63.42
2022-09-28T11:58:01.236Z,62.37
2022-09-28T12:00:37.049Z,62.69
2022-09-28T12:03:11.522Z,62.88
2022-09-28T12:05:44.072Z,62.46
2022-09-28T12:08:16.195Z,62.42
2022-09-28T12:11:09.337Z,62.34
2022-09-28T12:14:00.205Z,62.23
2022-09-28T12:17:04.309Z,61.63
2022-09-28T12:19:29.733Z,61.98
2022-09-28T12:22:03.800Z,61.98
2022-09-28T12:24:37.248Z,62.06
2022-09-28T12:27:14.177Z,61.91
2022-09-28T12:29:47.171Z,62.28
2022-09-28T12:32:26.295Z,62.48
2022-09-28T12:34:55.397Z,62.81
2022-09-28T12:37:38.327Z,62.67
2022-09-28T12:40:31.622Z,62.52
2022-09-28T12:43:12.198Z,62.12
2022-09-28T12:46:17.679Z,61.70
2022-09-28T12:50:07.219Z,62.21
2022-09-28T12:52:05.276Z,62.19
2022-09-28T12:55:05.255Z,62.20
2022-09-28T12:57:44.700Z,61.91
2022-09-28T13:00:17.110Z,62.31
2022-09-28T13:03:37.524Z,61.97
2022-09-28T13:06:32.254Z,62.71
2022-09-28T13:09:21.940Z,63.11
2022-09-28T13:12:09.798Z,63.33
2022-09-28T13:15:21.123Z,63.63
2022-09-28T13:18:00.289Z,65.13
2022-09-28T13:20:37.555Z,65.14
2022-09-28T13:23:15.255Z,65.64
2022-09-28T13:25:50.186Z,66.46
2022-09-28T13:28:23.954Z,67.25
2022-09-28T13:33:36.326Z,67.37
2022-09-28T13:36:26.724Z,67.89
2022-09-28T13:38:56.397Z,67.93
2022-09-28T13:41:29.121Z,68.69
2022-09-28T13:44:15.871Z,67.52
2022-09-28T13:46:54.947Z,67.48
2022-09-28T13:49:31.866Z,68.38
2022-09-28T13:52:07.750Z,68.64
2022-09-28T13:55:00.052Z,69.17
2022-09-28T13:57:36.618Z,69.51
2022-09-28T14:00:17.644Z,69.55
2022-09-28T14:02:48.661Z,70.67
2022-09-28T14:05:47.358Z,72.12
2022-09-28T14:08:31.091Z,72.69
2022-09-28T14:11:41.238Z,72.08
2022-09-28T14:14:31.630Z,72.95
2022-09-28T14:17:44.874Z,73.21
2022-09-28T14:20:17.404Z,76.42
2022-09-28T14:23:05.980Z,79.21
2022-09-28T14:25:42.724Z,80.27
2022-09-28T14:28:28.560Z,81.75
2022-09-28T14:30:58.183Z,81.13
2022-09-28T14:33:29.021Z,81.32
2022-09-28T14:36:01.263Z,81.72
2022-09-28T14:38:54.081Z,83.71
2022-09-28T14:41:33.113Z,84.36
2022-09-28T14:44:04.898Z,84.16
2022-09-28T14:46:36.551Z,84.12
2022-09-28T14:49:32.641Z,84.14
2022-09-28T14:52:03.240Z,83.25
2022-09-28T14:54:44.770Z,82.70
2022-09-28T14:57:23.616Z,83.60
2022-09-28T14:59:54.961Z,82.69
2022-09-28T15:02:32.359Z,82.82
2022-09-28T15:05:14.121Z,84.01
2022-09-28T15:07:51.117Z,85.34
2022-09-28T15:10:30.923Z,84.76
2022-09-28T15:13:02.529Z,84.87
2022-09-28T15:15:36.057Z,84.42
2022-09-28T15:18:47.156Z,85.89
2022-09-28T15:21:15.688Z,90.13
2022-09-28T15:23:46.186Z,91.25
2022-09-28T15:26:26.703Z,88.03
2022-09-28T15:28:58.337Z,86.69
2022-09-28T15:31:30.780Z,85.82
2022-09-28T15:34:17.393Z,86.12
2022-09-28T15:36:46.486Z,88.24
2022-09-28T15:39:21.113Z,88.63
2022-09-28T15:41:53.228Z,90.39
2022-09-28T15:44:32.204Z,89.38
2022-09-28T15:47:08.916Z,88.88
2022-09-28T15:49:44.122Z,90.44
2022-09-28T15:52:32.066Z,90.91
2022-09-28T15:55:01.780Z,90.45
2022-09-28T15:57:36.166Z,89.76
2022-09-28T16:00:07.426Z,91.85
2022-09-28T16:02:59.617Z,92.71
2022-09-28T16:05:39.093Z,91.90
2022-09-28T16:08:20.575Z,92.52
2022-09-28T16:11:08.362Z,91.85
2022-09-28T16:13:43.662Z,91.73
2022-09-28T16:16:16.436Z,92.76
2022-09-28T16:18:48.027Z,92.55
2022-09-28T16:21:44.267Z,92.39
2022-09-28T16:24:27.602Z,93.25
2022-09-28T16:27:00.289Z,91.99
2022-09-28T16:29:39.201Z,91.30
2022-09-28T16:32:41.721Z,90.97
2022-09-28T16:35:25.149Z,91.60
2022-09-28T16:38:00.974Z,91.98
2022-09-28T16:40:31.966Z,90.72
2022-09-28T16:43:04.387Z,91.46
2022-09-28T16:45:35.640Z,92.39
2022-09-28T16:48:05.521Z,93.32
2022-09-28T16:50:34.150Z,94.09
2022-09-28T16:53:30.754Z,94.42
2022-09-28T16:56:00.091Z,93.28
2022-09-28T16:58:30.506Z,93.11
2022-09-28T17:01:00.648Z,94.53
2022-09-28T17:03:29.736Z,94.13
2022-09-28T17:05:58.127Z,93.25
2022-09-28T17:08:26.775Z,94.74
2022-09-28T17:11:13.919Z,95.97
2022-09-28T17:13:45.418Z,94.81
2022-09-28T17:16:17.019Z,93.39
2022-09-28T17:18:47.554Z,93.32
2022-09-28T17:21:18.862Z,93.05
2022-09-28T17:23:48.868Z,91.19
2022-09-28T17:26:22.588Z,91.91
2022-09-28T17:28:50.740Z,94.70
2022-09-28T17:31:19.007Z,95.26
2022-09-28T17:33:47.336Z,95.83
2022-09-28T17:36:17.756Z,96.52
2022-09-28T17:38:47.507Z,97.04
2022-09-28T17:41:20.368Z,98.04
2022-09-28T17:43:49.549Z,98.82
2022-09-28T17:46:26.882Z,98.48
2022-09-28T17:48:57.417Z,98.71
2022-09-28T17:51:26.165Z,97.96
2022-09-28T17:53:56.433Z,98.83
2022-09-28T17:56:31.047Z,99.88
2022-09-28T17:59:02.990Z,97.93
2022-09-28T18:01:33.418Z,96.64
2022-09-28T18:04:03.596Z,96.59
2022-09-28T18:06:33.140Z,95.55
2022-09-28T18:09:02.528Z,95.76
2022-09-28T18:11:32.964Z,95.31
2022-09-28T18:14:01.834Z,95.24
2022-09-28T18:16:30.182Z,95.41
2022-09-28T18:18:59.030Z,97.33
2022-09-28T18:21:27.688Z,97.28
2022-09-28T18:23:58.730Z,95.67
2022-09-28T18:26:27.065Z,96.45
2022-09-28T18:28:55.605Z,97.38
2022-09-28T18:31:23.781Z,96.85
2022-09-28T18:33:59.437Z,94.78
2022-09-28T18:36:33.134Z,94.48
2022-09-28T18:39:02.694Z,95.06
2022-09-28T18:41:31.004Z,94.17
2022-09-28T18:44:00.393Z,94.00
2022-09-28T18:46:35.876Z,94.26
2022-09-28T18:49:04.748Z,95.78
2022-09-28T18:51:33.492Z,96.15
2022-09-28T18:54:06.581Z,94.53
2022-09-28T18:56:37.288Z,93.45
2022-09-28T18:59:09.965Z,94.52
2022-09-28T19:01:41.507Z,95.62
2022-09-28T19:04:13.018Z,96.72
2022-09-28T19:06:43.806Z,95.38
2022-09-28T19:09:12.821Z,96.24
2022-09-28T19:11:41.315Z,97.03
2022-09-28T19:14:14.211Z,96.94
2022-09-28T19:16:42.106Z,96.11
2022-09-28T19:19:12.296Z,96.68
2022-09-28T19:21:42.553Z,95.63
2022-09-28T19:24:13.811Z,95.48
2022-09-28T19:26:43.017Z,96.65
2022-09-28T19:29:12.449Z,96.83
2022-09-28T19:31:43.140Z,96.52
2022-09-28T19:34:14.115Z,97.02
2022-09-28T19:36:44.211Z,97.92
2022-09-28T19:39:15.536Z,97.27
2022-09-28T19:41:49.145Z,96.15
2022-09-28T19:44:23.732Z,96.38
2022-09-28T19:46:55.279Z,96.54
2022-09-28T19:49:25.913Z,96.17
2022-09-28T19:52:12.205Z,96.52
2022-09-28T19:54:43.124Z,96.27
2022-09-28T19:57:13.792Z,97.31
2022-09-28T19:59:42.267Z,97.82
2022-09-28T20:02:14.149Z,96.84
2022-09-28T20:04:42.932Z,96.52
2022-09-28T20:07:11.418Z,97.15
2022-09-28T20:09:39.698Z,98.04
2022-09-28T20:12:08.584Z,97.22
2022-09-28T20:14:39.590Z,95.43
2022-09-28T20:17:10.296Z,96.64
2022-09-28T20:19:38.769Z,96.44
2022-09-28T20:22:07.370Z,95.34
2022-09-28T20:24:35.842Z,95.00
2022-09-28T20:27:03.997Z,95.07
2022-09-28T20:29:34.766Z,95.77
2022-09-28T20:32:04.393Z,95.06
2022-09-28T20:34:33.342Z,94.55
2022-09-28T20:37:01.845Z,95.06
2022-09-28T20:39:30.117Z,95.01
2022-09-28T20:41:58.341Z,97.41
2022-09-28T20:44:26.592Z,96.09
2022-09-28T20:46:55.560Z,94.96
2022-09-28T20:49:24.037Z,96.20
2022-09-28T20:51:52.488Z,96.20
2022-09-28T20:54:21.679Z,95.63
2022-09-28T20:56:49.942Z,95.28
2022-09-28T20:59:19.378Z,94.95
2022-09-28T21:01:47.674Z,95.74
2022-09-28T21:04:15.907Z,95.50
2022-09-28T21:06:44.173Z,95.49
2022-09-28T21:09:12.876Z,95.77
2022-09-28T21:11:41.045Z,96.35
2022-09-28T21:14:09.790Z,96.96
2022-09-28T21:16:38.020Z,96.79
2022-09-28T21:19:06.167Z,95.91
2022-09-28T21:21:34.486Z,96.45
2022-09-28T21:24:03.831Z,97.21
2022-09-28T21:26:32.984Z,97.46
2022-09-28T21:29:03.281Z,96.98
2022-09-28T21:31:37.216Z,96.58
2022-09-28T21:34:04.593Z,97.12
2022-09-28T21:36:33.105Z,96.17
2022-09-28T21:39:01.341Z,96.99
2022-09-28T21:41:29.939Z,96.74
2022-09-28T21:43:58.392Z,97.40
2022-09-28T21:46:32.802Z,96.71
2022-09-28T21:49:02.128Z,96.57
2022-09-28T21:51:30.966Z,97.37
2022-09-28T21:53:59.127Z,96.81
2022-09-28T21:56:27.358Z,97.19
2022-09-28T21:58:55.610Z,96.72
2022-09-28T22:01:25.439Z,96.32
2022-09-28T22:03:54.797Z,96.49
2022-09-28T22:06:27.228Z,96.14
2022-09-28T22:08:56.004Z,96.79
2022-09-28T22:11:26.620Z,97.22
2022-09-28T22:13:56.363Z,97.27
2022-09-28T22:16:27.344Z,97.12
2022-09-28T22:18:55.920Z,96.73
2022-09-28T22:21:26.989Z,96.91
2022-09-28T22:24:00.108Z,96.14
2022-09-28T22:26:31.096Z,95.38
2022-09-28T22:29:01.017Z,94.82
2022-09-28T22:31:31.578Z,94.27
2022-09-28T22:34:00.165Z,94.07
2022-09-28T22:36:29.400Z,93.68
2022-09-28T22:38:58.597Z,93.35
2022-09-28T22:41:27.697Z,93.50
2022-09-28T22:43:56.092Z,93.75
2022-09-28T22:46:26.400Z,93.62
2022-09-28T22:48:56.541Z,93.49
2022-09-28T22:51:26.684Z,93.36
2022-09-28T22:53:56.157Z,93.59
2022-09-28T22:56:25.156Z,94.19
2022-09-28T22:58:53.407Z,94.40
2022-09-28T23:01:23.258Z,93.99
2022-09-28T23:03:53.185Z,94.01
2022-09-28T23:06:23.825Z,93.66
2022-09-28T23:08:53.362Z,94.30
2022-09-28T23:11:21.841Z,95.29
2022-09-28T23:13:51.164Z,94.83
2022-09-28T23:16:19.922Z,94.45
2022-09-28T23:18:48.420Z,94.02
2022-09-28T23:21:18.636Z,94.06
2022-09-28T23:23:52.217Z,93.81
2022-09-28T23:26:22.460Z,93.82
2022-09-28T23:28:52.021Z,93.64
2022-09-28T23:31:22.445Z,93.53
2022-09-28T23:33:51.517Z,93.32
2022-09-28T23:36:19.818Z,93.27
2022-09-28T23:38:48.191Z,93.85
2022-09-28T23:41:16.438Z,93.49
2022-09-28T23:43:44.765Z,93.77
2022-09-28T23:46:14.543Z,94.55
2022-09-28T23:48:45.483Z,94.35
2022-09-28T23:51:13.678Z,94.01
2022-09-28T23:53:42.555Z,94.04
2022-09-28T23:56:10.774Z,94.85
2022-09-28T23:58:38.978Z,94.07
